sensor_id;sensor_type;location;lat;lon;timestamp;P1;durP1;ratioP1;P2;durP2;ratioP2
11681;SDS011;5897;42.640;23.310;2022-12-24T00:00:57;33.75;;;21.58;;
11681;SDS011;5897;42.640;23.310;2022-12-24T00:03:24;30.92;;;23.88;;
11681;SDS011;5897;42.640;23.310;2022-12-24T00:05:51;25.77;;;19.03;;
11681;SDS011;5897;42.640;23.310;2022-12-24T00:08:18;24.10;;;17.00;;
11681;SDS011;5897;42.640;23.310;2022-12-24T00:10:49;26.35;;;18.17;;
11681;SDS011;5897;42.640;23.310;2022-12-24T00:13:16;28.80;;;19.77;;
11681;SDS011;5897;42.640;23.310;2022-12-24T00:15:43;29.50;;;19.75;;
11681;SDS011;5897;42.640;23.310;2022-12-24T00:18:12;30.83;;;21.80;;
11681;SDS011;5897;42.640;23.310;2022-12-24T00:20:39;31.15;;;21.42;;
11681;SDS011;5897;42.640;23.310;2022-12-24T00:23:05;29.60;;;19.10;;
11681;SDS011;5897;42.640;23.310;2022-12-24T00:25:33;24.80;;;17.77;;
11681;SDS011;5897;42.640;23.310;2022-12-24T00:27:59;23.27;;;17.15;;
11681;SDS011;5897;42.640;23.310;2022-12-24T00:30:26;21.98;;;15.95;;
11681;SDS011;5897;42.640;23.310;2022-12-24T00:32:53;19.83;;;14.30;;
11681;SDS011;5897;42.640;23.310;2022-12-24T00:35:21;20.55;;;15.43;;
11681;SDS011;5897;42.640;23.310;2022-12-24T00:37:48;19.60;;;14.18;;
11681;SDS011;5897;42.640;23.310;2022-12-24T00:40:15;20.83;;;14.88;;
11681;SDS011;5897;42.640;23.310;2022-12-24T00:42:43;23.75;;;15.43;;
11681;SDS011;5897;42.640;23.310;2022-12-24T00:45:10;27.38;;;17.67;;
11681;SDS011;5897;42.640;23.310;2022-12-24T00:47:38;24.25;;;17.63;;
11681;SDS011;5897;42.640;23.310;2022-12-24T00:50:05;25.00;;;17.23;;
11681;SDS011;5897;42.640;23.310;2022-12-24T00:52:34;17.98;;;14.15;;
11681;SDS011;5897;42.640;23.310;2022-12-24T00:55:01;23.55;;;15.43;;
11681;SDS011;5897;42.640;23.310;2022-12-24T00:57:29;19.25;;;14.52;;
11681;SDS011;5897;42.640;23.310;2022-12-24T00:59:56;18.67;;;13.68;;
11681;SDS011;5897;42.640;23.310;2022-12-24T01:02:22;18.30;;;12.80;;
11681;SDS011;5897;42.640;23.310;2022-12-24T01:04:49;17.23;;;13.00;;
11681;SDS011;5897;42.640;23.310;2022-12-24T01:07:35;15.98;;;12.27;;
11681;SDS011;5897;42.640;23.310;2022-12-24T01:10:04;18.70;;;13.30;;
11681;SDS011;5897;42.640;23.310;2022-12-24T01:12:31;19.08;;;14.02;;
11681;SDS011;5897;42.640;23.310;2022-12-24T01:14:59;16.98;;;12.93;;
11681;SDS011;5897;42.640;23.310;2022-12-24T01:17:25;15.43;;;11.80;;
11681;SDS011;5897;42.640;23.310;2022-12-24T01:19:52;16.60;;;12.00;;
11681;SDS011;5897;42.640;23.310;2022-12-24T01:22:19;23.02;;;13.88;;
11681;SDS011;5897;42.640;23.310;2022-12-24T01:24:47;22.88;;;13.55;;
11681;SDS011;5897;42.640;23.310;2022-12-24T01:27:14;15.02;;;11.48;;
11681;SDS011;5897;42.640;23.310;2022-12-24T01:29:41;16.15;;;11.82;;
11681;SDS011;5897;42.640;23.310;2022-12-24T01:32:08;16.77;;;11.77;;
11681;SDS011;5897;42.640;23.310;2022-12-24T01:34:35;15.38;;;11.57;;
11681;SDS011;5897;42.640;23.310;2022-12-24T01:37:01;16.58;;;11.13;;
11681;SDS011;5897;42.640;23.310;2022-12-24T01:39:28;14.52;;;11.07;;
11681;SDS011;5897;42.640;23.310;2022-12-24T01:41:56;13.95;;;10.55;;
11681;SDS011;5897;42.640;23.310;2022-12-24T01:44:41;16.00;;;10.90;;
11681;SDS011;5897;42.640;23.310;2022-12-24T01:47:10;18.85;;;11.20;;
11681;SDS011;5897;42.640;23.310;2022-12-24T01:49:42;13.00;;;10.60;;
11681;SDS011;5897;42.640;23.310;2022-12-24T01:52:12;18.42;;;11.10;;
11681;SDS011;5897;42.640;23.310;2022-12-24T01:54:43;14.88;;;11.15;;
11681;SDS011;5897;42.640;23.310;2022-12-24T01:57:17;13.48;;;10.25;;
11681;SDS011;5897;42.640;23.310;2022-12-24T01:59:48;13.88;;;10.65;;
11681;SDS011;5897;42.640;23.310;2022-12-24T02:02:19;15.35;;;11.48;;
11681;SDS011;5897;42.640;23.310;2022-12-24T02:04:49;19.63;;;12.35;;
11681;SDS011;5897;42.640;23.310;2022-12-24T02:07:20;17.45;;;13.00;;
11681;SDS011;5897;42.640;23.310;2022-12-24T02:09:47;14.15;;;10.32;;
11681;SDS011;5897;42.640;23.310;2022-12-24T02:12:19;11.07;;;9.20;;
11681;SDS011;5897;42.640;23.310;2022-12-24T02:14:46;10.93;;;8.27;;
11681;SDS011;5897;42.640;23.310;2022-12-24T02:17:16;12.20;;;9.70;;
11681;SDS011;5897;42.640;23.310;2022-12-24T02:23:06;16.58;;;11.80;;
11681;SDS011;5897;42.640;23.310;2022-12-24T02:25:56;17.52;;;12.15;;
11681;SDS011;5897;42.640;23.310;2022-12-24T02:28:40;13.63;;;11.50;;
11681;SDS011;5897;42.640;23.310;2022-12-24T02:31:31;13.20;;;9.90;;
11681;SDS011;5897;42.640;23.310;2022-12-24T02:34:05;16.52;;;11.07;;
11681;SDS011;5897;42.640;23.310;2022-12-24T02:36:35;20.37;;;13.27;;
11681;SDS011;5897;42.640;23.310;2022-12-24T02:39:08;24.83;;;14.60;;
11681;SDS011;5897;42.640;23.310;2022-12-24T02:41:38;19.23;;;13.30;;
11681;SDS011;5897;42.640;23.310;2022-12-24T02:44:26;13.95;;;10.50;;
11681;SDS011;5897;42.640;23.310;2022-12-24T02:46:57;16.87;;;10.40;;
11681;SDS011;5897;42.640;23.310;2022-12-24T02:49:25;11.65;;;9.10;;
11681;SDS011;5897;42.640;23.310;2022-12-24T02:51:52;12.75;;;9.25;;
11681;SDS011;5897;42.640;23.310;2022-12-24T02:54:19;11.07;;;8.82;;
11681;SDS011;5897;42.640;23.310;2022-12-24T02:56:50;9.80;;;7.88;;
11681;SDS011;5897;42.640;23.310;2022-12-24T02:59:40;9.87;;;8.13;;
11681;SDS011;5897;42.640;23.310;2022-12-24T03:02:23;10.77;;;9.07;;
11681;SDS011;5897;42.640;23.310;2022-12-24T03:04:57;11.37;;;9.47;;
11681;SDS011;5897;42.640;23.310;2022-12-24T03:07:33;10.77;;;8.93;;
11681;SDS011;5897;42.640;23.310;2022-12-24T03:10:10;13.27;;;9.87;;
11681;SDS011;5897;42.640;23.310;2022-12-24T03:12:44;12.53;;;10.10;;
11681;SDS011;5897;42.640;23.310;2022-12-24T03:15:15;10.63;;;8.57;;
11681;SDS011;5897;42.640;23.310;2022-12-24T03:17:46;9.40;;;8.00;;
11681;SDS011;5897;42.640;23.310;2022-12-24T03:20:16;11.53;;;9.60;;
11681;SDS011;5897;42.640;23.310;2022-12-24T03:22:46;17.13;;;11.43;;
11681;SDS011;5897;42.640;23.310;2022-12-24T03:25:12;12.80;;;10.83;;
11681;SDS011;5897;42.640;23.310;2022-12-24T03:27:40;15.50;;;11.17;;
11681;SDS011;5897;42.640;23.310;2022-12-24T03:30:09;13.47;;;10.80;;
11681;SDS011;5897;42.640;23.310;2022-12-24T03:32:38;12.10;;;9.70;;
11681;SDS011;5897;42.640;23.310;2022-12-24T03:35:07;13.05;;;9.15;;
11681;SDS011;5897;42.640;23.310;2022-12-24T03:37:34;11.17;;;8.50;;
11681;SDS011;5897;42.640;23.310;2022-12-24T03:40:01;11.23;;;8.93;;
11681;SDS011;5897;42.640;23.310;2022-12-24T03:42:28;11.70;;;8.13;;
11681;SDS011;5897;42.640;23.310;2022-12-24T03:44:54;10.03;;;8.03;;
11681;SDS011;5897;42.640;23.310;2022-12-24T03:47:21;12.23;;;9.30;;
11681;SDS011;5897;42.640;23.310;2022-12-24T03:49:48;14.20;;;9.87;;
11681;SDS011;5897;42.640;23.310;2022-12-24T03:52:16;14.13;;;10.33;;
11681;SDS011;5897;42.640;23.310;2022-12-24T03:54:43;14.80;;;10.97;;
11681;SDS011;5897;42.640;23.310;2022-12-24T03:57:10;13.40;;;10.97;;
11681;SDS011;5897;42.640;23.310;2022-12-24T03:59:37;21.27;;;15.17;;
11681;SDS011;5897;42.640;23.310;2022-12-24T04:02:04;16.27;;;12.02;;
11681;SDS011;5897;42.640;23.310;2022-12-24T04:04:30;17.23;;;12.07;;
11681;SDS011;5897;42.640;23.310;2022-12-24T04:07:00;15.07;;;11.03;;
11681;SDS011;5897;42.640;23.310;2022-12-24T04:09:29;14.77;;;11.33;;
11681;SDS011;5897;42.640;23.310;2022-12-24T04:11:56;17.80;;;12.47;;
11681;SDS011;5897;42.640;23.310;2022-12-24T04:14:23;17.73;;;14.13;;
11681;SDS011;5897;42.640;23.310;2022-12-24T04:16:49;16.63;;;13.52;;
11681;SDS011;5897;42.640;23.310;2022-12-24T04:19:16;17.17;;;14.30;;
11681;SDS011;5897;42.640;23.310;2022-12-24T04:21:43;18.38;;;14.57;;
11681;SDS011;5897;42.640;23.310;2022-12-24T04:24:10;21.77;;;14.90;;
11681;SDS011;5897;42.640;23.310;2022-12-24T04:26:38;19.53;;;13.43;;
11681;SDS011;5897;42.640;23.310;2022-12-24T04:29:05;17.17;;;13.13;;
11681;SDS011;5897;42.640;23.310;2022-12-24T04:31:32;17.20;;;12.20;;
11681;SDS011;5897;42.640;23.310;2022-12-24T04:33:58;16.03;;;11.73;;
11681;SDS011;5897;42.640;23.310;2022-12-24T04:36:25;14.93;;;10.60;;
11681;SDS011;5897;42.640;23.310;2022-12-24T04:38:52;17.40;;;10.73;;
11681;SDS011;5897;42.640;23.310;2022-12-24T04:41:19;15.68;;;11.35;;
11681;SDS011;5897;42.640;23.310;2022-12-24T04:43:48;13.97;;;9.83;;
11681;SDS011;5897;42.640;23.310;2022-12-24T04:46:17;15.83;;;10.77;;
11681;SDS011;5897;42.640;23.310;2022-12-24T04:48:45;13.50;;;10.77;;
11681;SDS011;5897;42.640;23.310;2022-12-24T04:51:13;18.70;;;14.23;;
11681;SDS011;5897;42.640;23.310;2022-12-24T04:53:41;19.08;;;14.32;;
11681;SDS011;5897;42.640;23.310;2022-12-24T04:56:08;15.67;;;10.77;;
11681;SDS011;5897;42.640;23.310;2022-12-24T04:58:37;14.53;;;10.73;;
11681;SDS011;5897;42.640;23.310;2022-12-24T05:01:06;11.67;;;9.10;;
11681;SDS011;5897;42.640;23.310;2022-12-24T05:03:37;7.37;;;5.73;;
11681;SDS011;5897;42.640;23.310;2022-12-24T05:06:04;6.37;;;5.07;;
11681;SDS011;5897;42.640;23.310;2022-12-24T05:08:33;31.50;;;14.83;;
11681;SDS011;5897;42.640;23.310;2022-12-24T05:11:00;29.47;;;14.30;;
11681;SDS011;5897;42.640;23.310;2022-12-24T05:13:27;29.67;;;15.80;;
11681;SDS011;5897;42.640;23.310;2022-12-24T05:15:54;34.72;;;18.98;;
11681;SDS011;5897;42.640;23.310;2022-12-24T05:18:22;31.73;;;17.92;;
11681;SDS011;5897;42.640;23.310;2022-12-24T05:20:50;30.10;;;16.93;;
11681;SDS011;5897;42.640;23.310;2022-12-24T05:23:17;31.53;;;18.53;;
11681;SDS011;5897;42.640;23.310;2022-12-24T05:26:02;37.45;;;23.80;;
11681;SDS011;5897;42.640;23.310;2022-12-24T05:28:48;31.70;;;20.67;;
11681;SDS011;5897;42.640;23.310;2022-12-24T05:31:16;22.67;;;16.47;;
11681;SDS011;5897;42.640;23.310;2022-12-24T05:33:45;24.80;;;16.63;;
11681;SDS011;5897;42.640;23.310;2022-12-24T05:36:12;22.27;;;16.27;;
11681;SDS011;5897;42.640;23.310;2022-12-24T05:38:39;23.27;;;16.13;;
11681;SDS011;5897;42.640;23.310;2022-12-24T05:41:06;23.50;;;15.67;;
11681;SDS011;5897;42.640;23.310;2022-12-24T05:43:34;22.63;;;16.13;;
11681;SDS011;5897;42.640;23.310;2022-12-24T05:46:04;18.73;;;14.30;;
11681;SDS011;5897;42.640;23.310;2022-12-24T05:48:32;19.77;;;14.37;;
11681;SDS011;5897;42.640;23.310;2022-12-24T05:51:03;18.02;;;12.65;;
11681;SDS011;5897;42.640;23.310;2022-12-24T05:53:32;14.20;;;11.43;;
11681;SDS011;5897;42.640;23.310;2022-12-24T05:56:03;14.40;;;10.75;;
11681;SDS011;5897;42.640;23.310;2022-12-24T05:58:30;16.80;;;12.32;;
11681;SDS011;5897;42.640;23.310;2022-12-24T06:00:57;18.92;;;14.23;;
11681;SDS011;5897;42.640;23.310;2022-12-24T06:03:24;24.48;;;16.67;;
11681;SDS011;5897;42.640;23.310;2022-12-24T06:05:56;30.45;;;19.38;;
11681;SDS011;5897;42.640;23.310;2022-12-24T06:08:26;24.60;;;15.60;;
11681;SDS011;5897;42.640;23.310;2022-12-24T06:10:53;29.33;;;17.10;;
11681;SDS011;5897;42.640;23.310;2022-12-24T06:13:22;28.17;;;18.08;;
11681;SDS011;5897;42.640;23.310;2022-12-24T06:15:49;28.90;;;19.40;;
11681;SDS011;5897;42.640;23.310;2022-12-24T06:18:16;32.83;;;19.70;;
11681;SDS011;5897;42.640;23.310;2022-12-24T06:20:42;31.48;;;20.52;;
11681;SDS011;5897;42.640;23.310;2022-12-24T06:23:09;28.98;;;18.67;;
11681;SDS011;5897;42.640;23.310;2022-12-24T06:25:37;24.83;;;16.52;;
11681;SDS011;5897;42.640;23.310;2022-12-24T06:28:04;22.20;;;15.60;;
11681;SDS011;5897;42.640;23.310;2022-12-24T06:30:31;24.20;;;16.55;;
11681;SDS011;5897;42.640;23.310;2022-12-24T06:32:58;29.92;;;18.77;;
11681;SDS011;5897;42.640;23.310;2022-12-24T06:35:25;26.83;;;18.40;;
11681;SDS011;5897;42.640;23.310;2022-12-24T06:37:51;28.13;;;18.90;;
11681;SDS011;5897;42.640;23.310;2022-12-24T06:40:18;25.98;;;18.08;;
11681;SDS011;5897;42.640;23.310;2022-12-24T06:42:46;23.95;;;17.75;;
11681;SDS011;5897;42.640;23.310;2022-12-24T06:45:13;23.13;;;17.35;;
11681;SDS011;5897;42.640;23.310;2022-12-24T06:47:40;25.42;;;17.42;;
11681;SDS011;5897;42.640;23.310;2022-12-24T06:50:07;25.95;;;17.80;;
11681;SDS011;5897;42.640;23.310;2022-12-24T06:52:35;25.55;;;18.55;;
11681;SDS011;5897;42.640;23.310;2022-12-24T06:55:02;27.60;;;18.70;;
11681;SDS011;5897;42.640;23.310;2022-12-24T06:57:29;25.75;;;18.45;;
11681;SDS011;5897;42.640;23.310;2022-12-24T06:59:58;29.55;;;21.27;;
11681;SDS011;5897;42.640;23.310;2022-12-24T07:02:25;30.08;;;21.33;;
11681;SDS011;5897;42.640;23.310;2022-12-24T07:04:52;29.13;;;19.77;;
11681;SDS011;5897;42.640;23.310;2022-12-24T07:07:19;28.92;;;20.42;;
11681;SDS011;5897;42.640;23.310;2022-12-24T07:09:45;25.70;;;19.05;;
11681;SDS011;5897;42.640;23.310;2022-12-24T07:12:12;25.70;;;19.60;;
11681;SDS011;5897;42.640;23.310;2022-12-24T07:14:39;23.77;;;17.90;;
11681;SDS011;5897;42.640;23.310;2022-12-24T07:17:07;22.35;;;17.25;;
11681;SDS011;5897;42.640;23.310;2022-12-24T07:19:34;23.17;;;17.63;;
11681;SDS011;5897;42.640;23.310;2022-12-24T07:22:01;21.77;;;16.98;;
11681;SDS011;5897;42.640;23.310;2022-12-24T07:24:28;24.38;;;17.50;;
11681;SDS011;5897;42.640;23.310;2022-12-24T07:26:55;23.05;;;16.77;;
11681;SDS011;5897;42.640;23.310;2022-12-24T07:29:22;23.85;;;16.40;;
11681;SDS011;5897;42.640;23.310;2022-12-24T07:31:49;21.55;;;15.25;;
11681;SDS011;5897;42.640;23.310;2022-12-24T07:34:17;22.45;;;17.60;;
11681;SDS011;5897;42.640;23.310;2022-12-24T07:36:44;18.52;;;15.32;;
11681;SDS011;5897;42.640;23.310;2022-12-24T07:39:11;20.55;;;16.02;;
11681;SDS011;5897;42.640;23.310;2022-12-24T07:41:38;20.85;;;15.52;;
11681;SDS011;5897;42.640;23.310;2022-12-24T07:44:05;20.88;;;16.05;;
11681;SDS011;5897;42.640;23.310;2022-12-24T07:46:32;21.40;;;16.13;;
11681;SDS011;5897;42.640;23.310;2022-12-24T07:49:00;23.35;;;17.92;;
11681;SDS011;5897;42.640;23.310;2022-12-24T07:51:28;24.20;;;19.40;;
11681;SDS011;5897;42.640;23.310;2022-12-24T07:53:55;21.05;;;16.70;;
11681;SDS011;5897;42.640;23.310;2022-12-24T07:56:22;23.17;;;16.58;;
11681;SDS011;5897;42.640;23.310;2022-12-24T07:58:49;22.02;;;16.23;;
11681;SDS011;5897;42.640;23.310;2022-12-24T08:01:16;24.17;;;16.80;;
11681;SDS011;5897;42.640;23.310;2022-12-24T08:03:43;25.55;;;17.33;;
11681;SDS011;5897;42.640;23.310;2022-12-24T08:06:10;21.77;;;17.38;;
11681;SDS011;5897;42.640;23.310;2022-12-24T08:08:38;21.38;;;17.27;;
11681;SDS011;5897;42.640;23.310;2022-12-24T08:11:05;23.67;;;17.13;;
11681;SDS011;5897;42.640;23.310;2022-12-24T08:13:32;25.33;;;17.10;;
11681;SDS011;5897;42.640;23.310;2022-12-24T08:16:00;23.67;;;16.95;;
11681;SDS011;5897;42.640;23.310;2022-12-24T08:18:26;22.48;;;18.17;;
11681;SDS011;5897;42.640;23.310;2022-12-24T08:20:53;22.63;;;17.35;;
11681;SDS011;5897;42.640;23.310;2022-12-24T08:23:21;25.42;;;18.90;;
11681;SDS011;5897;42.640;23.310;2022-12-24T08:25:50;24.38;;;17.88;;
11681;SDS011;5897;42.640;23.310;2022-12-24T08:28:18;21.38;;;17.67;;
11681;SDS011;5897;42.640;23.310;2022-12-24T08:30:46;25.50;;;18.05;;
11681;SDS011;5897;42.640;23.310;2022-12-24T08:33:14;27.23;;;18.13;;
11681;SDS011;5897;42.640;23.310;2022-12-24T08:35:45;26.08;;;18.42;;
11681;SDS011;5897;42.640;23.310;2022-12-24T08:38:12;25.38;;;19.02;;
11681;SDS011;5897;42.640;23.310;2022-12-24T08:40:39;20.42;;;16.08;;
11681;SDS011;5897;42.640;23.310;2022-12-24T08:43:07;23.63;;;16.15;;
11681;SDS011;5897;42.640;23.310;2022-12-24T08:45:34;19.33;;;14.93;;
11681;SDS011;5897;42.640;23.310;2022-12-24T08:48:03;20.80;;;15.15;;
11681;SDS011;5897;42.640;23.310;2022-12-24T08:50:30;20.52;;;15.43;;
11681;SDS011;5897;42.640;23.310;2022-12-24T08:52:57;19.20;;;15.60;;
11681;SDS011;5897;42.640;23.310;2022-12-24T08:55:24;21.85;;;15.93;;
11681;SDS011;5897;42.640;23.310;2022-12-24T08:57:51;33.17;;;23.88;;
11681;SDS011;5897;42.640;23.310;2022-12-24T09:00:19;24.80;;;18.75;;
11681;SDS011;5897;42.640;23.310;2022-12-24T09:02:46;28.05;;;19.73;;
11681;SDS011;5897;42.640;23.310;2022-12-24T09:05:13;27.45;;;21.00;;
11681;SDS011;5897;42.640;23.310;2022-12-24T09:07:40;59.65;;;43.92;;
11681;SDS011;5897;42.640;23.310;2022-12-24T09:10:07;132.05;;;78.82;;
11681;SDS011;5897;42.640;23.310;2022-12-24T09:12:35;27.92;;;22.13;;
11681;SDS011;5897;42.640;23.310;2022-12-24T09:15:02;28.80;;;22.30;;
11681;SDS011;5897;42.640;23.310;2022-12-24T09:17:33;30.40;;;23.17;;
11681;SDS011;5897;42.640;23.310;2022-12-24T09:20:00;29.02;;;21.35;;
11681;SDS011;5897;42.640;23.310;2022-12-24T09:22:27;29.52;;;22.80;;
11681;SDS011;5897;42.640;23.310;2022-12-24T09:24:54;29.50;;;22.33;;
11681;SDS011;5897;42.640;23.310;2022-12-24T09:27:20;30.58;;;21.77;;
11681;SDS011;5897;42.640;23.310;2022-12-24T09:29:47;31.95;;;22.13;;
11681;SDS011;5897;42.640;23.310;2022-12-24T09:32:14;31.77;;;23.13;;
11681;SDS011;5897;42.640;23.310;2022-12-24T09:34:43;31.70;;;23.33;;
11681;SDS011;5897;42.640;23.310;2022-12-24T09:37:09;30.42;;;22.48;;
11681;SDS011;5897;42.640;23.310;2022-12-24T09:39:36;28.52;;;21.85;;
11681;SDS011;5897;42.640;23.310;2022-12-24T09:42:05;26.98;;;22.02;;
11681;SDS011;5897;42.640;23.310;2022-12-24T09:44:42;28.77;;;22.55;;
11681;SDS011;5897;42.640;23.310;2022-12-24T09:47:16;30.92;;;22.88;;
11681;SDS011;5897;42.640;23.310;2022-12-24T09:49:52;31.13;;;23.38;;
11681;SDS011;5897;42.640;23.310;2022-12-24T09:52:24;31.60;;;23.02;;
11681;SDS011;5897;42.640;23.310;2022-12-24T09:54:57;33.80;;;23.15;;
11681;SDS011;5897;42.640;23.310;2022-12-24T09:57:31;31.17;;;23.08;;
11681;SDS011;5897;42.640;23.310;2022-12-24T10:00:10;31.73;;;22.15;;
11681;SDS011;5897;42.640;23.310;2022-12-24T10:02:44;30.73;;;22.58;;
11681;SDS011;5897;42.640;23.310;2022-12-24T10:05:14;30.48;;;21.67;;
11681;SDS011;5897;42.640;23.310;2022-12-24T10:07:44;28.90;;;21.05;;
11681;SDS011;5897;42.640;23.310;2022-12-24T10:10:18;26.17;;;18.60;;
11681;SDS011;5897;42.640;23.310;2022-12-24T10:12:53;26.98;;;19.33;;
11681;SDS011;5897;42.640;23.310;2022-12-24T10:15:29;26.48;;;18.45;;
11681;SDS011;5897;42.640;23.310;2022-12-24T10:18:05;27.05;;;18.33;;
11681;SDS011;5897;42.640;23.310;2022-12-24T10:20:44;23.58;;;17.52;;
11681;SDS011;5897;42.640;23.310;2022-12-24T10:23:18;27.02;;;17.52;;
11681;SDS011;5897;42.640;23.310;2022-12-24T10:25:51;23.88;;;15.63;;
11681;SDS011;5897;42.640;23.310;2022-12-24T10:28:27;23.75;;;15.63;;
11681;SDS011;5897;42.640;23.310;2022-12-24T10:30:58;21.83;;;15.82;;
11681;SDS011;5897;42.640;23.310;2022-12-24T10:33:30;21.60;;;16.13;;
11681;SDS011;5897;42.640;23.310;2022-12-24T10:36:03;21.48;;;16.08;;
11681;SDS011;5897;42.640;23.310;2022-12-24T10:38:34;20.15;;;14.88;;
11681;SDS011;5897;42.640;23.310;2022-12-24T10:41:01;27.65;;;18.90;;
11681;SDS011;5897;42.640;23.310;2022-12-24T10:43:28;28.73;;;19.85;;
11681;SDS011;5897;42.640;23.310;2022-12-24T10:45:57;29.80;;;20.85;;
11681;SDS011;5897;42.640;23.310;2022-12-24T10:48:27;32.63;;;23.15;;
11681;SDS011;5897;42.640;23.310;2022-12-24T10:50:57;45.00;;;30.25;;
11681;SDS011;5897;42.640;23.310;2022-12-24T10:53:30;50.90;;;32.80;;
11681;SDS011;5897;42.640;23.310;2022-12-24T10:56:04;49.67;;;34.72;;
11681;SDS011;5897;42.640;23.310;2022-12-24T10:58:33;43.20;;;34.78;;
11681;SDS011;5897;42.640;23.310;2022-12-24T11:01:00;46.58;;;34.55;;
11681;SDS011;5897;42.640;23.310;2022-12-24T11:03:29;49.88;;;37.10;;
11681;SDS011;5897;42.640;23.310;2022-12-24T11:05:58;52.45;;;38.20;;
11681;SDS011;5897;42.640;23.310;2022-12-24T11:08:29;55.30;;;40.00;;
11681;SDS011;5897;42.640;23.310;2022-12-24T11:10:56;58.03;;;41.80;;
11681;SDS011;5897;42.640;23.310;2022-12-24T11:13:25;60.63;;;40.75;;
11681;SDS011;5897;42.640;23.310;2022-12-24T11:15:58;53.80;;;39.42;;
11681;SDS011;5897;42.640;23.310;2022-12-24T11:18:27;57.50;;;40.30;;
11681;SDS011;5897;42.640;23.310;2022-12-24T11:20:56;54.65;;;39.05;;
11681;SDS011;5897;42.640;23.310;2022-12-24T11:23:25;58.15;;;40.13;;
11681;SDS011;5897;42.640;23.310;2022-12-24T11:25:54;57.90;;;40.58;;
11681;SDS011;5897;42.640;23.310;2022-12-24T11:28:23;57.53;;;39.17;;
11681;SDS011;5897;42.640;23.310;2022-12-24T11:30:58;54.88;;;37.58;;
11681;SDS011;5897;42.640;23.310;2022-12-24T11:33:30;55.20;;;38.97;;
11681;SDS011;5897;42.640;23.310;2022-12-24T11:36:10;54.60;;;38.03;;
11681;SDS011;5897;42.640;23.310;2022-12-24T11:38:38;51.92;;;38.05;;
11681;SDS011;5897;42.640;23.310;2022-12-24T11:41:08;49.75;;;34.42;;
11681;SDS011;5897;42.640;23.310;2022-12-24T11:43:40;44.83;;;34.42;;
11681;SDS011;5897;42.640;23.310;2022-12-24T11:46:20;55.33;;;37.38;;
11681;SDS011;5897;42.640;23.310;2022-12-24T11:49:04;78.68;;;58.20;;
11681;SDS011;5897;42.640;23.310;2022-12-24T11:51:39;50.42;;;37.40;;
11681;SDS011;5897;42.640;23.310;2022-12-24T11:54:28;51.92;;;36.72;;
11681;SDS011;5897;42.640;23.310;2022-12-24T11:57:00;50.38;;;36.60;;
11681;SDS011;5897;42.640;23.310;2022-12-24T11:59:29;51.22;;;36.55;;
11681;SDS011;5897;42.640;23.310;2022-12-24T12:01:59;49.00;;;36.70;;
11681;SDS011;5897;42.640;23.310;2022-12-24T12:04:37;46.92;;;36.35;;
11681;SDS011;5897;42.640;23.310;2022-12-24T12:07:09;47.28;;;36.78;;
11681;SDS011;5897;42.640;23.310;2022-12-24T12:09:40;47.47;;;36.15;;
11681;SDS011;5897;42.640;23.310;2022-12-24T12:12:14;48.50;;;36.83;;
11681;SDS011;5897;42.640;23.310;2022-12-24T12:14:47;49.30;;;37.83;;
11681;SDS011;5897;42.640;23.310;2022-12-24T12:17:21;49.75;;;37.33;;
11681;SDS011;5897;42.640;23.310;2022-12-24T12:19:55;49.20;;;38.35;;
11681;SDS011;5897;42.640;23.310;2022-12-24T12:22:27;51.03;;;38.53;;
11681;SDS011;5897;42.640;23.310;2022-12-24T12:24:55;49.90;;;38.72;;
11681;SDS011;5897;42.640;23.310;2022-12-24T12:27:29;52.90;;;39.78;;
11681;SDS011;5897;42.640;23.310;2022-12-24T12:30:00;52.55;;;39.97;;
11681;SDS011;5897;42.640;23.310;2022-12-24T12:32:40;54.53;;;38.95;;
11681;SDS011;5897;42.640;23.310;2022-12-24T12:35:14;49.47;;;38.83;;
11681;SDS011;5897;42.640;23.310;2022-12-24T12:37:47;45.10;;;38.03;;
11681;SDS011;5897;42.640;23.310;2022-12-24T12:40:20;47.88;;;36.15;;
11681;SDS011;5897;42.640;23.310;2022-12-24T12:42:58;51.30;;;37.17;;
11681;SDS011;5897;42.640;23.310;2022-12-24T12:45:36;49.08;;;38.60;;
11681;SDS011;5897;42.640;23.310;2022-12-24T12:48:19;48.08;;;38.20;;
11681;SDS011;5897;42.640;23.310;2022-12-24T12:51:04;48.13;;;37.83;;
11681;SDS011;5897;42.640;23.310;2022-12-24T12:56:32;55.58;;;39.25;;
11681;SDS011;5897;42.640;23.310;2022-12-24T12:59:02;54.45;;;39.05;;
11681;SDS011;5897;42.640;23.310;2022-12-24T13:01:40;54.20;;;38.25;;
11681;SDS011;5897;42.640;23.310;2022-12-24T13:04:28;49.30;;;38.50;;
11681;SDS011;5897;42.640;23.310;2022-12-24T13:10:37;54.97;;;40.72;;
11681;SDS011;5897;42.640;23.310;2022-12-24T13:13:29;52.53;;;41.28;;
11681;SDS011;5897;42.640;23.310;2022-12-24T13:16:15;57.90;;;41.88;;
11681;SDS011;5897;42.640;23.310;2022-12-24T13:19:03;56.72;;;42.97;;
11681;SDS011;5897;42.640;23.310;2022-12-24T13:21:41;58.65;;;45.67;;
11681;SDS011;5897;42.640;23.310;2022-12-24T13:24:13;62.90;;;49.20;;
11681;SDS011;5897;42.640;23.310;2022-12-24T13:26:45;63.30;;;45.35;;
11681;SDS011;5897;42.640;23.310;2022-12-24T13:29:29;56.58;;;43.55;;
11681;SDS011;5897;42.640;23.310;2022-12-24T13:32:36;62.33;;;44.05;;
11681;SDS011;5897;42.640;23.310;2022-12-24T13:35:25;53.85;;;42.47;;
11681;SDS011;5897;42.640;23.310;2022-12-24T13:44:26;58.15;;;42.92;;
11681;SDS011;5897;42.640;23.310;2022-12-24T13:49:49;57.88;;;43.25;;
11681;SDS011;5897;42.640;23.310;2022-12-24T13:52:25;59.83;;;43.78;;
11681;SDS011;5897;42.640;23.310;2022-12-24T13:55:05;59.85;;;44.70;;
11681;SDS011;5897;42.640;23.310;2022-12-24T13:57:46;60.20;;;46.17;;
11681;SDS011;5897;42.640;23.310;2022-12-24T14:00:23;63.40;;;46.60;;
11681;SDS011;5897;42.640;23.310;2022-12-24T14:03:14;64.32;;;46.85;;
11681;SDS011;5897;42.640;23.310;2022-12-24T14:05:54;60.05;;;46.92;;
11681;SDS011;5897;42.640;23.310;2022-12-24T14:08:34;62.60;;;44.22;;
11681;SDS011;5897;42.640;23.310;2022-12-24T14:11:06;57.58;;;43.75;;
11681;SDS011;5897;42.640;23.310;2022-12-24T14:16:46;58.50;;;42.53;;
11681;SDS011;5897;42.640;23.310;2022-12-24T14:19:17;51.75;;;39.10;;
11681;SDS011;5897;42.640;23.310;2022-12-24T14:21:50;58.00;;;43.30;;
11681;SDS011;5897;42.640;23.310;2022-12-24T14:24:22;59.92;;;41.90;;
11681;SDS011;5897;42.640;23.310;2022-12-24T14:26:51;56.40;;;41.60;;
11681;SDS011;5897;42.640;23.310;2022-12-24T14:29:21;55.72;;;41.67;;
11681;SDS011;5897;42.640;23.310;2022-12-24T14:31:53;54.50;;;40.67;;
11681;SDS011;5897;42.640;23.310;2022-12-24T14:34:20;55.75;;;40.10;;
11681;SDS011;5897;42.640;23.310;2022-12-24T14:36:48;51.88;;;38.88;;
11681;SDS011;5897;42.640;23.310;2022-12-24T14:39:21;57.08;;;40.80;;
11681;SDS011;5897;42.640;23.310;2022-12-24T14:41:53;38.25;;;27.95;;
11681;SDS011;5897;42.640;23.310;2022-12-24T14:44:29;35.08;;;26.83;;
11681;SDS011;5897;42.640;23.310;2022-12-24T14:47:06;34.83;;;24.48;;
11681;SDS011;5897;42.640;23.310;2022-12-24T14:49:45;35.95;;;26.48;;
11681;SDS011;5897;42.640;23.310;2022-12-24T14:52:26;34.47;;;24.05;;
11681;SDS011;5897;42.640;23.310;2022-12-24T14:55:00;31.80;;;22.83;;
11681;SDS011;5897;42.640;23.310;2022-12-24T15:00:52;26.08;;;16.90;;
11681;SDS011;5897;42.640;23.310;2022-12-24T15:03:21;25.90;;;14.32;;
11681;SDS011;5897;42.640;23.310;2022-12-24T15:05:50;21.77;;;13.20;;
11681;SDS011;5897;42.640;23.310;2022-12-24T15:08:22;20.70;;;12.50;;